sensor_id;sensor_type;location;lat;lon;timestamp;temperature;humidity
12477;DHT22;6303;51.504;6.300;2023-02-25T00:00:52;20.10;53.50
12477;DHT22;6303;51.504;6.300;2023-02-25T00:03:19;20.10;53.60
12477;DHT22;6303;51.504;6.300;2023-02-25T00:05:47;20.10;53.60
12477;DHT22;6303;51.504;6.300;2023-02-25T00:08:14;20.00;53.40
12477;DHT22;6303;51.504;6.300;2023-02-25T00:10:41;20.10;53.50
12477;DHT22;6303;51.504;6.300;2023-02-25T00:13:08;20.10;53.40
12477;DHT22;6303;51.504;6.300;2023-02-25T00:15:39;20.00;53.40
12477;DHT22;6303;51.504;6.300;2023-02-25T00:18:08;20.10;53.50
12477;DHT22;6303;51.504;6.300;2023-02-25T00:20:38;20.10;53.50
12477;DHT22;6303;51.504;6.300;2023-02-25T00:23:05;20.10;53.40
12477;DHT22;6303;51.504;6.300;2023-02-25T00:25:32;20.10;53.50
12477;DHT22;6303;51.504;6.300;2023-02-25T00:27:59;20.00;53.50
12477;DHT22;6303;51.504;6.300;2023-02-25T00:30:29;20.10;53.50
12477;DHT22;6303;51.504;6.300;2023-02-25T00:32:57;20.00;53.50
12477;DHT22;6303;51.504;6.300;2023-02-25T00:35:25;20.00;53.50
12477;DHT22;6303;51.504;6.300;2023-02-25T00:37:52;20.00;53.50
12477;DHT22;6303;51.504;6.300;2023-02-25T00:40:19;20.10;53.50
12477;DHT22;6303;51.504;6.300;2023-02-25T00:42:46;20.00;53.40
12477;DHT22;6303;51.504;6.300;2023-02-25T00:45:14;20.10;53.40
12477;DHT22;6303;51.504;6.300;2023-02-25T00:47:42;20.10;53.40
12477;DHT22;6303;51.504;6.300;2023-02-25T00:50:10;20.00;53.40
12477;DHT22;6303;51.504;6.300;2023-02-25T00:52:40;20.00;53.40
12477;DHT22;6303;51.504;6.300;2023-02-25T00:55:08;20.00;53.40
12477;DHT22;6303;51.504;6.300;2023-02-25T00:57:35;20.10;53.40
12477;DHT22;6303;51.504;6.300;2023-02-25T01:00:04;20.00;53.40
12477;DHT22;6303;51.504;6.300;2023-02-25T01:02:34;17.90;52.40
12477;DHT22;6303;51.504;6.300;2023-02-25T01:05:03;20.00;53.40
12477;DHT22;6303;51.504;6.300;2023-02-25T01:07:30;20.00;53.50
12477;DHT22;6303;51.504;6.300;2023-02-25T01:09:59;20.00;53.40
12477;DHT22;6303;51.504;6.300;2023-02-25T01:12:26;20.00;53.40
12477;DHT22;6303;51.504;6.300;2023-02-25T01:14:54;20.00;53.40
12477;DHT22;6303;51.504;6.300;2023-02-25T01:17:21;20.00;53.40
12477;DHT22;6303;51.504;6.300;2023-02-25T01:19:48;20.00;53.50
12477;DHT22;6303;51.504;6.300;2023-02-25T01:22:15;19.90;53.50
12477;DHT22;6303;51.504;6.300;2023-02-25T01:24:42;20.00;53.50
12477;DHT22;6303;51.504;6.300;2023-02-25T01:27:10;20.00;53.50
12477;DHT22;6303;51.504;6.300;2023-02-25T01:29:38;20.00;53.40
12477;DHT22;6303;51.504;6.300;2023-02-25T01:32:09;19.90;53.40
12477;DHT22;6303;51.504;6.300;2023-02-25T01:34:37;20.00;53.40
12477;DHT22;6303;51.504;6.300;2023-02-25T01:37:04;20.00;53.30
12477;DHT22;6303;51.504;6.300;2023-02-25T01:39:32;20.10;53.40
12477;DHT22;6303;51.504;6.300;2023-02-25T01:42:05;20.00;53.30
12477;DHT22;6303;51.504;6.300;2023-02-25T01:45:22;22.20;54.40
12477;DHT22;6303;51.504;6.300;2023-02-25T01:47:52;17.80;52.20
12477;DHT22;6303;51.504;6.300;2023-02-25T01:50:25;19.90;53.30
12477;DHT22;6303;51.504;6.300;2023-02-25T01:52:56;20.00;53.30
12477;DHT22;6303;51.504;6.300;2023-02-25T01:55:24;20.00;53.30
12477;DHT22;6303;51.504;6.300;2023-02-25T01:57:51;20.00;53.20
12477;DHT22;6303;51.504;6.300;2023-02-25T02:00:20;20.00;53.20
12477;DHT22;6303;51.504;6.300;2023-02-25T02:02:49;20.00;53.20
12477;DHT22;6303;51.504;6.300;2023-02-25T02:05:17;20.00;53.20
12477;DHT22;6303;51.504;6.300;2023-02-25T02:07:44;20.00;53.30
12477;DHT22;6303;51.504;6.300;2023-02-25T02:10:12;20.00;53.30
12477;DHT22;6303;51.504;6.300;2023-02-25T02:12:42;20.00;53.30
12477;DHT22;6303;51.504;6.300;2023-02-25T02:15:12;20.00;53.30
12477;DHT22;6303;51.504;6.300;2023-02-25T02:17:45;19.90;53.20
12477;DHT22;6303;51.504;6.300;2023-02-25T02:20:18;20.00;53.30
12477;DHT22;6303;51.504;6.300;2023-02-25T02:25:57;20.00;53.20
12477;DHT22;6303;51.504;6.300;2023-02-25T02:29:14;20.00;53.10
12477;DHT22;6303;51.504;6.300;2023-02-25T02:31:53;20.00;53.10
12477;DHT22;6303;51.504;6.300;2023-02-25T02:34:30;20.00;53.20
12477;DHT22;6303;51.504;6.300;2023-02-25T02:37:11;20.00;53.10
12477;DHT22;6303;51.504;6.300;2023-02-25T02:39:50;20.00;53.10
12477;DHT22;6303;51.504;6.300;2023-02-25T02:42:27;20.00;53.10
12477;DHT22;6303;51.504;6.300;2023-02-25T02:45:02;20.00;53.10
12477;DHT22;6303;51.504;6.300;2023-02-25T02:47:34;19.90;53.10
12477;DHT22;6303;51.504;6.300;2023-02-25T02:50:05;19.90;53.10
12477;DHT22;6303;51.504;6.300;2023-02-25T02:52:37;20.00;53.20
12477;DHT22;6303;51.504;6.300;2023-02-25T02:55:09;20.00;53.20
12477;DHT22;6303;51.504;6.300;2023-02-25T02:57:50;20.00;53.20
12477;DHT22;6303;51.504;6.300;2023-02-25T03:00:23;19.90;53.10
12477;DHT22;6303;51.504;6.300;2023-02-25T03:02:57;20.00;53.10
12477;DHT22;6303;51.504;6.300;2023-02-25T03:05:28;20.00;53.20
12477;DHT22;6303;51.504;6.300;2023-02-25T03:08:02;19.90;53.30
12477;DHT22;6303;51.504;6.300;2023-02-25T03:10:31;20.00;53.30
12477;DHT22;6303;51.504;6.300;2023-02-25T03:12:59;20.00;53.40
12477;DHT22;6303;51.504;6.300;2023-02-25T03:15:27;19.90;53.30
12477;DHT22;6303;51.504;6.300;2023-02-25T03:18:03;20.00;53.40
12477;DHT22;6303;51.504;6.300;2023-02-25T03:20:35;20.10;53.40
12477;DHT22;6303;51.504;6.300;2023-02-25T03:23:06;20.60;53.70
12477;DHT22;6303;51.504;6.300;2023-02-25T03:25:41;19.90;53.30
12477;DHT22;6303;51.504;6.300;2023-02-25T03:28:26;19.90;53.30
12477;DHT22;6303;51.504;6.300;2023-02-25T03:31:02;19.90;53.30
12477;DHT22;6303;51.504;6.300;2023-02-25T03:33:36;19.90;53.20
12477;DHT22;6303;51.504;6.300;2023-02-25T03:36:09;19.90;53.20
12477;DHT22;6303;51.504;6.300;2023-02-25T03:38:42;19.90;53.20
12477;DHT22;6303;51.504;6.300;2023-02-25T03:41:13;19.90;53.30
12477;DHT22;6303;51.504;6.300;2023-02-25T03:43:43;19.90;53.30
12477;DHT22;6303;51.504;6.300;2023-02-25T03:46:12;19.90;53.90
12477;DHT22;6303;51.504;6.300;2023-02-25T03:48:42;19.90;53.20
12477;DHT22;6303;51.504;6.300;2023-02-25T03:51:13;19.90;53.20
12477;DHT22;6303;51.504;6.300;2023-02-25T03:53:44;19.80;53.30
12477;DHT22;6303;51.504;6.300;2023-02-25T03:56:16;19.90;53.20
12477;DHT22;6303;51.504;6.300;2023-02-25T03:58:43;19.90;53.10
12477;DHT22;6303;51.504;6.300;2023-02-25T04:01:14;19.90;53.20
12477;DHT22;6303;51.504;6.300;2023-02-25T04:03:43;19.90;53.20
12477;DHT22;6303;51.504;6.300;2023-02-25T04:06:12;19.90;53.20
12477;DHT22;6303;51.504;6.300;2023-02-25T04:08:39;19.90;53.80
12477;DHT22;6303;51.504;6.300;2023-02-25T04:11:06;19.90;53.10
12477;DHT22;6303;51.504;6.300;2023-02-25T04:13:34;19.90;53.00
12477;DHT22;6303;51.504;6.300;2023-02-25T04:16:01;19.90;53.10
12477;DHT22;6303;51.504;6.300;2023-02-25T04:18:28;19.90;53.00
12477;DHT22;6303;51.504;6.300;2023-02-25T04:20:56;19.90;53.00
12477;DHT22;6303;51.504;6.300;2023-02-25T04:23:23;19.90;53.00
12477;DHT22;6303;51.504;6.300;2023-02-25T04:25:50;19.90;53.00
12477;DHT22;6303;51.504;6.300;2023-02-25T04:28:17;20.00;53.00
12477;DHT22;6303;51.504;6.300;2023-02-25T04:30:44;19.90;52.90
12477;DHT22;6303;51.504;6.300;2023-02-25T04:33:11;19.90;53.00
12477;DHT22;6303;51.504;6.300;2023-02-25T04:35:38;19.90;53.10
12477;DHT22;6303;51.504;6.300;2023-02-25T04:38:07;19.90;53.60
12477;DHT22;6303;51.504;6.300;2023-02-25T04:40:34;19.90;53.00
12477;DHT22;6303;51.504;6.300;2023-02-25T04:43:01;19.90;53.10
12477;DHT22;6303;51.504;6.300;2023-02-25T04:45:28;19.90;53.00
12477;DHT22;6303;51.504;6.300;2023-02-25T04:47:55;19.90;53.10
12477;DHT22;6303;51.504;6.300;2023-02-25T04:50:23;19.90;53.00
12477;DHT22;6303;51.504;6.300;2023-02-25T04:52:50;19.90;53.00
12477;DHT22;6303;51.504;6.300;2023-02-25T04:55:19;19.90;52.90
12477;DHT22;6303;51.504;6.300;2023-02-25T04:57:46;19.70;52.80
12477;DHT22;6303;51.504;6.300;2023-02-25T05:00:15;19.90;53.10
12477;DHT22;6303;51.504;6.300;2023-02-25T05:02:45;19.90;53.10
12477;DHT22;6303;51.504;6.300;2023-02-25T05:05:13;19.90;53.10
12477;DHT22;6303;51.504;6.300;2023-02-25T05:07:40;19.90;53.00
12477;DHT22;6303;51.504;6.300;2023-02-25T05:10:09;19.90;52.90
12477;DHT22;6303;51.504;6.300;2023-02-25T05:12:38;19.90;53.00
12477;DHT22;6303;51.504;6.300;2023-02-25T05:15:06;19.90;53.00
12477;DHT22;6303;51.504;6.300;2023-02-25T05:17:33;19.90;52.90
12477;DHT22;6303;51.504;6.300;2023-02-25T05:20:00;19.80;52.90
12477;DHT22;6303;51.504;6.300;2023-02-25T05:22:31;19.80;53.00
12477;DHT22;6303;51.504;6.300;2023-02-25T05:24:58;19.90;53.10
12477;DHT22;6303;51.504;6.300;2023-02-25T05:27:25;19.90;52.90
12477;DHT22;6303;51.504;6.300;2023-02-25T05:29:53;19.90;53.00
12477;DHT22;6303;51.504;6.300;2023-02-25T05:32:20;19.90;52.90
12477;DHT22;6303;51.504;6.300;2023-02-25T05:34:47;19.90;52.90
12477;DHT22;6303;51.504;6.300;2023-02-25T05:37:14;19.90;52.80
12477;DHT22;6303;51.504;6.300;2023-02-25T05:39:42;19.90;52.80
12477;DHT22;6303;51.504;6.300;2023-02-25T05:42:09;19.80;52.90
12477;DHT22;6303;51.504;6.300;2023-02-25T05:44:36;19.80;52.90
12477;DHT22;6303;51.504;6.300;2023-02-25T05:47:04;19.80;52.90
12477;DHT22;6303;51.504;6.300;2023-02-25T05:49:32;19.80;52.80
12477;DHT22;6303;51.504;6.300;2023-02-25T05:51:59;19.80;52.80
12477;DHT22;6303;51.504;6.300;2023-02-25T05:54:26;19.80;52.80
12477;DHT22;6303;51.504;6.300;2023-02-25T05:56:53;19.80;52.80
12477;DHT22;6303;51.504;6.300;2023-02-25T05:59:20;19.80;52.80
12477;DHT22;6303;51.504;6.300;2023-02-25T06:01:47;19.80;52.80
12477;DHT22;6303;51.504;6.300;2023-02-25T06:04:15;19.80;52.80
12477;DHT22;6303;51.504;6.300;2023-02-25T06:06:42;19.80;52.70
12477;DHT22;6303;51.504;6.300;2023-02-25T06:09:16;19.90;53.30
12477;DHT22;6303;51.504;6.300;2023-02-25T06:11:45;19.80;52.70
12477;DHT22;6303;51.504;6.300;2023-02-25T06:14:12;19.80;52.70
12477;DHT22;6303;51.504;6.300;2023-02-25T06:16:40;19.80;52.70
12477;DHT22;6303;51.504;6.300;2023-02-25T06:19:08;19.80;52.70
12477;DHT22;6303;51.504;6.300;2023-02-25T06:21:38;19.80;52.70
12477;DHT22;6303;51.504;6.300;2023-02-25T06:24:06;19.80;52.70
12477;DHT22;6303;51.504;6.300;2023-02-25T06:26:33;19.80;52.70
12477;DHT22;6303;51.504;6.300;2023-02-25T06:29:07;19.80;52.70
12477;DHT22;6303;51.504;6.300;2023-02-25T06:31:34;19.80;52.60
12477;DHT22;6303;51.504;6.300;2023-02-25T06:34:01;19.90;52.70
12477;DHT22;6303;51.504;6.300;2023-02-25T06:36:28;19.90;52.60
12477;DHT22;6303;51.504;6.300;2023-02-25T06:38:58;19.90;52.60
12477;DHT22;6303;51.504;6.300;2023-02-25T06:41:25;19.90;52.50
12477;DHT22;6303;51.504;6.300;2023-02-25T06:43:52;19.90;52.50
12477;DHT22;6303;51.504;6.300;2023-02-25T06:46:22;19.90;52.50
12477;DHT22;6303;51.504;6.300;2023-02-25T06:48:50;19.90;52.50
12477;DHT22;6303;51.504;6.300;2023-02-25T06:51:17;19.90;52.50
12477;DHT22;6303;51.504;6.300;2023-02-25T06:53:45;19.90;52.50
12477;DHT22;6303;51.504;6.300;2023-02-25T06:56:14;19.90;52.50
12477;DHT22;6303;51.504;6.300;2023-02-25T06:58:44;19.90;52.50
12477;DHT22;6303;51.504;6.300;2023-02-25T07:01:14;19.90;52.40
12477;DHT22;6303;51.504;6.300;2023-02-25T07:03:41;19.90;52.40
12477;DHT22;6303;51.504;6.300;2023-02-25T07:06:09;20.00;52.40
12477;DHT22;6303;51.504;6.300;2023-02-25T07:08:38;20.00;52.30
12477;DHT22;6303;51.504;6.300;2023-02-25T07:11:10;20.00;52.30
12477;DHT22;6303;51.504;6.300;2023-02-25T07:13:39;20.00;52.30
12477;DHT22;6303;51.504;6.300;2023-02-25T07:16:08;20.00;52.30
12477;DHT22;6303;51.504;6.300;2023-02-25T07:18:35;20.00;52.30
12477;DHT22;6303;51.504;6.300;2023-02-25T07:21:02;20.00;52.30
12477;DHT22;6303;51.504;6.300;2023-02-25T07:23:29;20.00;52.20
12477;DHT22;6303;51.504;6.300;2023-02-25T07:25:56;20.00;52.20
12477;DHT22;6303;51.504;6.300;2023-02-25T07:28:23;20.00;52.10
12477;DHT22;6303;51.504;6.300;2023-02-25T07:30:52;20.00;52.00
12477;DHT22;6303;51.504;6.300;2023-02-25T07:33:19;20.00;52.10
12477;DHT22;6303;51.504;6.300;2023-02-25T07:35:46;20.00;52.20
12477;DHT22;6303;51.504;6.300;2023-02-25T07:38:13;20.00;52.10
12477;DHT22;6303;51.504;6.300;2023-02-25T07:40:40;20.10;52.10
12477;DHT22;6303;51.504;6.300;2023-02-25T07:43:07;20.10;52.40
12477;DHT22;6303;51.504;6.300;2023-02-25T07:45:34;20.10;52.00
12477;DHT22;6303;51.504;6.300;2023-02-25T07:48:03;20.30;51.80
12477;DHT22;6303;51.504;6.300;2023-02-25T07:50:30;20.30;51.60
12477;DHT22;6303;51.504;6.300;2023-02-25T07:52:57;20.30;51.50
12477;DHT22;6303;51.504;6.300;2023-02-25T07:55:24;20.30;51.50
12477;DHT22;6303;51.504;6.300;2023-02-25T07:57:51;20.30;51.50
12477;DHT22;6303;51.504;6.300;2023-02-25T08:00:19;20.40;51.50
12477;DHT22;6303;51.504;6.300;2023-02-25T08:02:46;20.40;51.50
12477;DHT22;6303;51.504;6.300;2023-02-25T08:05:14;20.40;51.50
12477;DHT22;6303;51.504;6.300;2023-02-25T08:07:47;20.40;51.40
12477;DHT22;6303;51.504;6.300;2023-02-25T08:10:14;20.40;51.40
12477;DHT22;6303;51.504;6.300;2023-02-25T08:12:41;20.50;51.30
12477;DHT22;6303;51.504;6.300;2023-02-25T08:15:08;20.50;51.30
12477;DHT22;6303;51.504;6.300;2023-02-25T08:17:36;20.50;51.30
12477;DHT22;6303;51.504;6.300;2023-02-25T08:20:03;20.50;51.30
12477;DHT22;6303;51.504;6.300;2023-02-25T08:22:32;20.60;51.30
12477;DHT22;6303;51.504;6.300;2023-02-25T08:24:59;20.60;51.20
12477;DHT22;6303;51.504;6.300;2023-02-25T08:27:26;20.70;51.10
12477;DHT22;6303;51.504;6.300;2023-02-25T08:29:53;20.70;51.00
12477;DHT22;6303;51.504;6.300;2023-02-25T08:32:21;20.20;50.70
12477;DHT22;6303;51.504;6.300;2023-02-25T08:34:50;20.80;50.90
12477;DHT22;6303;51.504;6.300;2023-02-25T08:37:17;20.80;50.80
12477;DHT22;6303;51.504;6.300;2023-02-25T08:39:47;20.80;51.50
12477;DHT22;6303;51.504;6.300;2023-02-25T08:42:14;20.80;50.80
12477;DHT22;6303;51.504;6.300;2023-02-25T08:44:44;20.80;50.90
12477;DHT22;6303;51.504;6.300;2023-02-25T08:47:11;20.80;50.90
12477;DHT22;6303;51.504;6.300;2023-02-25T08:49:38;20.90;50.90
12477;DHT22;6303;51.504;6.300;2023-02-25T08:52:06;20.90;50.80
12477;DHT22;6303;51.504;6.300;2023-02-25T08:54:34;21.00;50.60
12477;DHT22;6303;51.504;6.300;2023-02-25T08:57:03;21.10;50.50
12477;DHT22;6303;51.504;6.300;2023-02-25T08:59:30;21.20;50.40
12477;DHT22;6303;51.504;6.300;2023-02-25T09:02:00;21.30;50.20
12477;DHT22;6303;51.504;6.300;2023-02-25T09:04:27;21.40;50.10
12477;DHT22;6303;51.504;6.300;2023-02-25T09:06:54;21.50;49.90
12477;DHT22;6303;51.504;6.300;2023-02-25T09:09:23;21.40;49.90
12477;DHT22;6303;51.504;6.300;2023-02-25T09:11:51;21.40;50.10
12477;DHT22;6303;51.504;6.300;2023-02-25T09:14:20;21.40;50.20
12477;DHT22;6303;51.504;6.300;2023-02-25T09:16:48;21.30;50.20
12477;DHT22;6303;51.504;6.300;2023-02-25T09:19:15;21.30;50.20
12477;DHT22;6303;51.504;6.300;2023-02-25T09:21:43;21.40;50.30
12477;DHT22;6303;51.504;6.300;2023-02-25T09:24:12;21.40;50.30
12477;DHT22;6303;51.504;6.300;2023-02-25T09:26:40;21.40;50.20
12477;DHT22;6303;51.504;6.300;2023-02-25T09:29:07;21.40;50.30
12477;DHT22;6303;51.504;6.300;2023-02-25T09:31:36;21.40;50.30
12477;DHT22;6303;51.504;6.300;2023-02-25T09:34:06;21.40;50.30
12477;DHT22;6303;51.504;6.300;2023-02-25T09:36:33;21.40;50.30
12477;DHT22;6303;51.504;6.300;2023-02-25T09:39:01;21.50;50.30
12477;DHT22;6303;51.504;6.300;2023-02-25T09:41:40;21.50;50.30
12477;DHT22;6303;51.504;6.300;2023-02-25T09:44:11;21.50;50.30
12477;DHT22;6303;51.504;6.300;2023-02-25T09:46:45;21.50;50.30
12477;DHT22;6303;51.504;6.300;2023-02-25T09:49:17;21.50;50.30
12477;DHT22;6303;51.504;6.300;2023-02-25T09:51:49;21.50;50.30
12477;DHT22;6303;51.504;6.300;2023-02-25T09:54:22;21.50;51.00
12477;DHT22;6303;51.504;6.300;2023-02-25T09:56:52;21.60;50.50
12477;DHT22;6303;51.504;6.300;2023-02-25T09:59:20;21.60;50.30
12477;DHT22;6303;51.504;6.300;2023-02-25T10:01:52;21.60;50.30
12477;DHT22;6303;51.504;6.300;2023-02-25T10:04:27;21.60;50.20
12477;DHT22;6303;51.504;6.300;2023-02-25T10:07:03;21.60;50.20
12477;DHT22;6303;51.504;6.300;2023-02-25T10:09:38;21.60;50.20
12477;DHT22;6303;51.504;6.300;2023-02-25T10:12:17;21.60;50.30
12477;DHT22;6303;51.504;6.300;2023-02-25T10:15:00;21.60;50.20
12477;DHT22;6303;51.504;6.300;2023-02-25T10:17:37;21.60;50.20
12477;DHT22;6303;51.504;6.300;2023-02-25T10:20:37;21.60;50.20
12477;DHT22;6303;51.504;6.300;2023-02-25T10:23:11;21.60;50.20
12477;DHT22;6303;51.504;6.300;2023-02-25T10:25:44;21.60;50.20
12477;DHT22;6303;51.504;6.300;2023-02-25T10:28:15;21.60;50.20
12477;DHT22;6303;51.504;6.300;2023-02-25T10:30:47;21.70;50.30
12477;DHT22;6303;51.504;6.300;2023-02-25T10:33:18;21.60;50.10
12477;DHT22;6303;51.504;6.300;2023-02-25T10:35:52;21.70;50.10
12477;DHT22;6303;51.504;6.300;2023-02-25T10:38:20;20.90;49.60
12477;DHT22;6303;51.504;6.300;2023-02-25T10:40:47;21.70;49.80
12477;DHT22;6303;51.504;6.300;2023-02-25T10:43:19;21.70;49.80
12477;DHT22;6303;51.504;6.300;2023-02-25T10:45:49;21.70;49.60
12477;DHT22;6303;51.504;6.300;2023-02-25T10:48:22;21.70;49.70
12477;DHT22;6303;51.504;6.300;2023-02-25T10:51:04;21.80;49.70
12477;DHT22;6303;51.504;6.300;2023-02-25T10:53:32;22.30;49.60
12477;DHT22;6303;51.504;6.300;2023-02-25T10:56:00;22.20;49.20
12477;DHT22;6303;51.504;6.300;2023-02-25T10:58:31;22.40;48.70
12477;DHT22;6303;51.504;6.300;2023-02-25T11:01:03;22.50;48.40
12477;DHT22;6303;51.504;6.300;2023-02-25T11:03:39;22.60;48.30
12477;DHT22;6303;51.504;6.300;2023-02-25T11:06:10;22.80;48.10
12477;DHT22;6303;51.504;6.300;2023-02-25T11:08:38;22.90;47.80
12477;DHT22;6303;51.504;6.300;2023-02-25T11:11:14;23.00;47.50
12477;DHT22;6303;51.504;6.300;2023-02-25T11:13:41;23.00;47.40
12477;DHT22;6303;51.504;6.300;2023-02-25T11:16:10;22.90;47.50
12477;DHT22;6303;51.504;6.300;2023-02-25T11:18:40;22.90;47.50
12477;DHT22;6303;51.504;6.300;2023-02-25T11:21:09;22.90;47.60
12477;DHT22;6303;51.504;6.300;2023-02-25T11:23:43;23.00;47.50
12477;DHT22;6303;51.504;6.300;2023-02-25T11:26:14;23.20;47.30
12477;DHT22;6303;51.504;6.300;2023-02-25T11:28:45;23.20;47.00
12477;DHT22;6303;51.504;6.300;2023-02-25T11:31:17;23.30;46.80
12477;DHT22;6303;51.504;6.300;2023-02-25T11:33:52;23.30;46.60
12477;DHT22;6303;51.504;6.300;2023-02-25T11:36:22;23.40;46.60
12477;DHT22;6303;51.504;6.300;2023-02-25T11:39:04;25.50;47.60
12477;DHT22;6303;51.504;6.300;2023-02-25T11:41:31;23.50;46.40
12477;DHT22;6303;51.504;6.300;2023-02-25T11:44:16;23.60;46.30
12477;DHT22;6303;51.504;6.300;2023-02-25T11:46:46;23.70;46.20
12477;DHT22;6303;51.504;6.300;2023-02-25T11:49:27;23.70;46.00
12477;DHT22;6303;51.504;6.300;2023-02-25T11:52:00;23.60;46.00
12477;DHT22;6303;51.504;6.300;2023-02-25T11:54:35;23.40;46.20
12477;DHT22;6303;51.504;6.300;2023-02-25T11:57:10;23.30;46.40
12477;DHT22;6303;51.504;6.300;2023-02-25T11:59:47;23.20;46.60
12477;DHT22;6303;51.504;6.300;2023-02-25T12:02:25;23.10;46.70
12477;DHT22;6303;51.504;6.300;2023-02-25T12:08:15;23.00;47.10
12477;DHT22;6303;51.504;6.300;2023-02-25T12:11:11;23.10;47.00
12477;DHT22;6303;51.504;6.300;2023-02-25T12:14:05;23.20;46.90
12477;DHT22;6303;51.504;6.300;2023-02-25T12:23:13;23.10;46.90
12477;DHT22;6303;51.504;6.300;2023-02-25T12:25:48;23.00;46.80
12477;DHT22;6303;51.504;6.300;2023-02-25T12:28:36;23.00;46.90
12477;DHT22;6303;51.504;6.300;2023-02-25T12:34:38;23.10;46.80
12477;DHT22;6303;51.504;6.300;2023-02-25T12:37:28;23.20;46.60
12477;DHT22;6303;51.504;6.300;2023-02-25T12:40:09;23.30;46.40
12477;DHT22;6303;51.504;6.300;2023-02-25T12:42:55;23.30;46.30
12477;DHT22;6303;51.504;6.300;2023-02-25T12:45:45;23.40;46.20
12477;DHT22;6303;51.504;6.300;2023-02-25T12:48:32;23.40;46.10
12477;DHT22;6303;51.504;6.300;2023-02-25T12:51:21;23.40;45.90
12477;DHT22;6303;51.504;6.300;2023-02-25T12:53:59;23.40;46.10
12477;DHT22;6303;51.504;6.300;2023-02-25T12:57:01;23.40;46.60
12477;DHT22;6303;51.504;6.300;2023-02-25T13:00:02;23.30;46.00
12477;DHT22;6303;51.504;6.300;2023-02-25T13:03:09;23.30;46.10
12477;DHT22;6303;51.504;6.300;2023-02-25T13:11:51;23.00;46.60
12477;DHT22;6303;51.504;6.300;2023-02-25T13:14:35;22.90;46.70
12477;DHT22;6303;51.504;6.300;2023-02-25T13:17:22;22.90;46.80
12477;DHT22;6303;51.504;6.300;2023-02-25T13:20:18;22.90;46.80
12477;DHT22;6303;51.504;6.300;2023-02-25T13:23:02;22.90;46.70
12477;DHT22;6303;51.504;6.300;2023-02-25T13:25:47;23.00;46.60
12477;DHT22;6303;51.504;6.300;2023-02-25T13:28:28;23.00;46.50
12477;DHT22;6303;51.504;6.300;2023-02-25T13:31:04;23.00;46.40
12477;DHT22;6303;51.504;6.300;2023-02-25T13:33:51;23.00;46.30
12477;DHT22;6303;51.504;6.300;2023-02-25T13:36:43;23.00;46.30
12477;DHT22;6303;51.504;6.300;2023-02-25T13:39:27;23.00;46.30
12477;DHT22;6303;51.504;6.300;2023-02-25T13:45:30;22.90;46.20
12477;DHT22;6303;51.504;6.300;2023-02-25T13:48:15;22.90;46.20
12477;DHT22;6303;51.504;6.300;2023-02-25T13:50:54;22.90;46.20
12477;DHT22;6303;51.504;6.300;2023-02-25T13:53:41;22.90;46.30
12477;DHT22;6303;51.504;6.300;2023-02-25T13:56:25;22.80;46.30
12477;DHT22;6303;51.504;6.300;2023-02-25T13:59:10;22.80;46.40
12477;DHT22;6303;51.504;6.300;2023-02-25T14:01:48;22.80;46.30
12477;DHT22;6303;51.504;6.300;2023-02-25T14:04:49;22.70;46.30
12477;DHT22;6303;51.504;6.300;2023-02-25T14:07:44;22.70;46.20
12477;DHT22;6303;51.504;6.300;2023-02-25T14:10:28;22.70;46.20
12477;DHT22;6303;51.504;6.300;2023-02-25T14:13:28;22.60;46.20
12477;DHT22;6303;51.504;6.300;2023-02-25T14:16:02;22.60;46.20
12477;DHT22;6303;51.504;6.300;2023-02-25T14:18:45;22.60;46.20
12477;DHT22;6303;51.504;6.300;2023-02-25T14:21:39;22.60;46.30
12477;DHT22;6303;51.504;6.300;2023-02-25T14:24:13;22.60;46.30
12477;DHT22;6303;51.504;6.300;2023-02-25T14:26:48;22.50;46.20
12477;DHT22;6303;51.504;6.300;2023-02-25T14:29:26;22.50;46.20
12477;DHT22;6303;51.504;6.300;2023-02-25T14:32:11;22.50;46.20
12477;DHT22;6303;51.504;6.300;2023-02-25T14:34:55;22.50;46.20
12477;DHT22;6303;51.504;6.300;2023-02-25T14:37:36;22.50;46.40
12477;DHT22;6303;51.504;6.300;2023-02-25T14:40:23;22.40;46.40
12477;DHT22;6303;51.504;6.300;2023-02-25T14:43:21;22.40;46.40
12477;DHT22;6303;51.504;6.300;2023-02-25T14:45:58;22.40;46.50
12477;DHT22;6303;51.504;6.300;2023-02-25T14:48:31;22.40;46.50
12477;DHT22;6303;51.504;6.300;2023-02-25T14:51:17;22.40;46.50
12477;DHT22;6303;51.504;6.300;2023-02-25T14:54:13;22.40;46.50
12477;DHT22;6303;51.504;6.300;2023-02-25T14:56:54;22.30;47.00
12477;DHT22;6303;51.504;6.300;2023-02-25T14:59:53;22.30;47.60
12477;DHT22;6303;51.504;6.300;2023-02-25T15:02:43;22.20;47.80
12477;DHT22;6303;51.504;6.300;2023-02-25T15:05:27;22.20;47.70
12477;DHT22;6303;51.504;6.300;2023-02-25T15:08:15;22.10;47.50
12477;DHT22;6303;51.504;6.300;2023-02-25T15:10:56;22.10;47.50
12477;DHT22;6303;51.504;6.300;2023-02-25T15:13:41;22.10;47.50
12477;DHT22;6303;51.504;6.300;2023-02-25T15:16:50;22.00;47.40
12477;DHT22;6303;51.504;6.300;2023-02-25T15:19:42;21.90;47.30
12477;DHT22;6303;51.504;6.300;2023-02-25T15:22:22;21.90;47.30
12477;DHT22;6303;51.504;6.300;2023-02-25T15:24:52;21.90;47.20
12477;DHT22;6303;51.504;6.300;2023-02-25T15:27:43;21.80;47.10
12477;DHT22;6303;51.504;6.300;2023-02-25T15:30:12;21.80;47.00
12477;DHT22;6303;51.504;6.300;2023-02-25T15:33:13;21.80;47.00
12477;DHT22;6303;51.504;6.300;2023-02-25T15:35:54;21.70;47.00
12477;DHT22;6303;51.504;6.300;2023-02-25T15:38:38;21.70;46.90
12477;DHT22;6303;51.504;6.300;2023-02-25T15:41:37;21.60;46.90
12477;DHT22;6303;51.504;6.300;2023-02-25T15:44:29;21.60;46.80
12477;DHT22;6303;51.504;6.300;2023-02-25T15:47:18;21.60;46.80
12477;DHT22;6303;51.504;6.300;2023-02-25T15:49:49;21.50;46.70
12477;DHT22;6303;51.504;6.300;2023-02-25T15:55:32;21.50;46.70
12477;DHT22;6303;51.504;6.300;2023-02-25T15:58:01;21.50;46.80
12477;DHT22;6303;51.504;6.300;2023-02-25T16:00:53;21.50;46.80
12477;DHT22;6303;51.504;6.300;2023-02-25T16:03:47;21.50;47.00
12477;DHT22;6303;51.504;6.300;2023-02-25T16:06:17;22.70;47.80
12477;DHT22;6303;51.504;6.300;2023-02-25T16:09:00;21.40;47.10
12477;DHT22;6303;51.504;6.300;2023-02-25T16:11:35;21.40;47.10
12477;DHT22;6303;51.504;6.300;2023-02-25T16:14:06;21.40;46.90
12477;DHT22;6303;51.504;6.300;2023-02-25T16:16:35;21.40;46.90
12477;DHT22;6303;51.504;6.300;2023-02-25T16:19:08;21.40;47.00
12477;DHT22;6303;51.504;6.300;2023-02-25T16:21:39;21.30;46.80
12477;DHT22;6303;51.504;6.300;2023-02-25T16:24:08;21.30;46.80
12477;DHT22;6303;51.504;6.300;2023-02-25T16:26:46;21.30;46.80
12477;DHT22;6303;51.504;6.300;2023-02-25T16:29:34;21.30;46.80
12477;DHT22;6303;51.504;6.300;2023-02-25T16:32:07;21.20;46.70
12477;DHT22;6303;51.504;6.300;2023-02-25T16:34:44;21.20;46.80
12477;DHT22;6303;51.504;6.300;2023-02-25T16:37:18;21.20;46.80
12477;DHT22;6303;51.504;6.300;2023-02-25T16:39:47;21.10;46.90
12477;DHT22;6303;51.504;6.300;2023-02-25T16:42:16;21.10;47.00
12477;DHT22;6303;51.504;6.300;2023-02-25T16:44:54;21.10;47.10
12477;DHT22;6303;51.504;6.300;2023-02-25T16:47:24;21.00;47.20
12477;DHT22;6303;51.504;6.300;2023-02-25T16:49:53;21.00;47.20
12477;DHT22;6303;51.504;6.300;2023-02-25T16:52:25;21.00;47.20